Gokceada 1 — TCSZ8 — position and weather

sailwx.info

Track history (hours):
 
Tides and Currents Weather Stations Pressure Air Temp Water Temp Dewpoint Dewpoint Depression Visibility Wind Speed Wind Dir Waves Ship Positions

Gokceada 1

Last reported at 2017-Nov-23 07:03 UTC. Time now 2017-Nov-23 09:33 UTC.
Position N 40°14' E 026°01'.

Length 84 m; draft 4.1 m.

MMSI: 271001031.

Date/timePositionNaut miles runAvg speedWind from/ knotsBaromVisibWave heightAir tempDewpointWater temp
2017-Nov-23 07:03N 40°14' E 026°01'4 1.7
2017-Nov-23 04:39N 40°13' E 026°07'312.7
2017-Nov-23 04:25N 40°13' E 026°03'  
2017-Nov-19 18:01N 40°14' E 026°01'011.9
2017-Nov-19 18:00N 40°14' E 026°01'5 2.2
2017-Nov-19 15:43N 40°13' E 026°07'312.1
2017-Nov-19 15:28N 40°13' E 026°04'3 1.1
2017-Nov-19 13:01N 40°14' E 026°00'012.9
2017-Nov-19 12:59N 40°14' E 026°01'6 2.5
2017-Nov-19 10:45N 40°13' E 026°08'312.4
2017-Nov-19 10:30N 40°13' E 026°04'3 0.8
2017-Nov-19 07:05N 40°14' E 026°01'112.0
2017-Nov-19 07:00N 40°14' E 026°02'4 1.9
2017-Nov-19 04:40N 40°13' E 026°07'213.1
2017-Nov-19 04:30N 40°13' E 026°04'3 0.2
2017-Nov-18 07:13N 40°14' E 026°00'312.2
2017-Nov-18 07:00N 40°14' E 026°03'5 2.2
2017-Nov-18 04:52N 40°13' E 026°10'412.4
2017-Nov-18 04:30N 40°13' E 026°04'4 0.4
2017-Nov-17 18:12N 40°15' E 025°59'311.5
2017-Nov-17 17:59N 40°15' E 026°02'6 2.6
2017-Nov-17 15:48N 40°13' E 026°09'412.3
2017-Nov-17 15:28N 40°14' E 026°04'1 0.2
2017-Nov-17 10:32N 40°14' E 026°05'011.9
2017-Nov-17 10:30N 40°14' E 026°04'3 1.0
2017-Nov-17 07:08N 40°14' E 025°60'212.4
2017-Nov-17 07:00N 40°14' E 026°02'6 2.7
2017-Nov-17 04:50N 40°13' E 026°09'412.2
2017-Nov-17 04:30N 40°13' E 026°04'3 0.3
2017-Nov-16 17:06N 40°14' E 025°60'112.4
2017-Nov-16 17:00N 40°14' E 026°01'8 3.7
2017-Nov-16 14:58N 40°12' E 026°11'611.9
2017-Nov-16 14:30N 40°13' E 026°04'3 2.1
2017-Nov-16 13:07N 40°14' E 026°00'5 2.3
2017-Nov-16 10:43N 40°13' E 026°07'311.9
2017-Nov-16 10:28N 40°13' E 026°03'4 0.8
2017-Nov-16 05:02N 40°13' E 026°09'012.1
2017-Nov-16 05:00N 40°13' E 026°08'7 0.8
2017-Nov-15 20:09N 40°14' E 025°59'212.7
2017-Nov-15 20:00N 40°14' E 026°02'7 4.5
2017-Nov-15 18:30N 40°13' E 026°10'611.8
2017-Nov-15 17:59N 40°13' E 026°02'1 1.1
2017-Nov-15 17:00N 40°14' E 026°01'612.3
2017-Nov-15 16:29N 40°13' E 026°09'1 0.8
2017-Nov-15 15:08N 40°12' E 026°11'212.3
2017-Nov-15 14:58N 40°13' E 026°08'6 3.0
2017-Nov-15 13:02N 40°14' E 026°00'012.5
2017-Nov-15 13:00N 40°14' E 026°01'5 2.2
2017-Nov-15 10:44N 40°13' E 026°07'312.6
2017-Nov-15 10:30N 40°13' E 026°04'2 0.7
2017-Nov-15 07:06N 40°14' E 026°01'112.1
2017-Nov-15 07:00N 40°14' E 026°02'0 0.2
2017-Nov-15 04:21N 40°13' E 026°02'0 0.0
2017-Nov-14 16:59N 40°13' E 026°01'7 3.3
2017-Nov-14 14:53N 40°13' E 026°11'513.4
2017-Nov-14 14:30N 40°13' E 026°04'3 1.9
2017-Nov-14 13:08N 40°14' E 026°01'212.2
2017-Nov-14 13:00N 40°13' E 026°03'611.8
2017-Nov-14 12:30N 40°13' E 026°10'3 1.7
2017-Nov-14 11:01N 40°12' E 026°14'413.5
2017-Nov-14 10:43N 40°13' E 026°08'313.6
2017-Nov-14 10:30N 40°13' E 026°05'2 0.5
2017-Nov-14 06:59N 40°13' E 026°02'5 2.6
2017-Nov-14 04:51N 40°13' E 026°10'513.0
2017-Nov-14 04:30N 40°13' E 026°03'  
Track history (hours):
 
Tides and Currents Weather Stations Pressure Air Temp Water Temp Dewpoint Dewpoint Depression Visibility Wind Speed Wind Dir Waves Ship Positions

Gokceada 1

Last reported at 2017-Nov-23 07:03 UTC. Time now 2017-Nov-23 09:33 UTC.
Position N 40°14' E 026°01'.

Length 84 m; draft 4.1 m.

MMSI: 271001031.

Date/timePositionNaut miles runAvg speedWind from/ knotsBaromVisibWave heightAir tempDewpointWater temp
2017-Nov-23 07:03N 40°14' E 026°01'4 1.7
2017-Nov-23 04:39N 40°13' E 026°07'312.7
2017-Nov-23 04:25N 40°13' E 026°03'  
2017-Nov-19 18:01N 40°14' E 026°01'011.9
2017-Nov-19 18:00N 40°14' E 026°01'5 2.2
2017-Nov-19 15:43N 40°13' E 026°07'312.1
2017-Nov-19 15:28N 40°13' E 026°04'3 1.1
2017-Nov-19 13:01N 40°14' E 026°00'012.9
2017-Nov-19 12:59N 40°14' E 026°01'6 2.5
2017-Nov-19 10:45N 40°13' E 026°08'312.4
2017-Nov-19 10:30N 40°13' E 026°04'3 0.8
2017-Nov-19 07:05N 40°14' E 026°01'112.0
2017-Nov-19 07:00N 40°14' E 026°02'4 1.9
2017-Nov-19 04:40N 40°13' E 026°07'213.1
2017-Nov-19 04:30N 40°13' E 026°04'3 0.2
2017-Nov-18 07:13N 40°14' E 026°00'312.2
2017-Nov-18 07:00N 40°14' E 026°03'5 2.2
2017-Nov-18 04:52N 40°13' E 026°10'412.4
2017-Nov-18 04:30N 40°13' E 026°04'4 0.4
2017-Nov-17 18:12N 40°15' E 025°59'311.5
2017-Nov-17 17:59N 40°15' E 026°02'6 2.6
2017-Nov-17 15:48N 40°13' E 026°09'412.3
2017-Nov-17 15:28N 40°14' E 026°04'1 0.2
2017-Nov-17 10:32N 40°14' E 026°05'011.9
2017-Nov-17 10:30N 40°14' E 026°04'3 1.0
2017-Nov-17 07:08N 40°14' E 025°60'212.4
2017-Nov-17 07:00N 40°14' E 026°02'6 2.7
2017-Nov-17 04:50N 40°13' E 026°09'412.2
2017-Nov-17 04:30N 40°13' E 026°04'3 0.3
2017-Nov-16 17:06N 40°14' E 025°60'112.4
2017-Nov-16 17:00N 40°14' E 026°01'8 3.7
2017-Nov-16 14:58N 40°12' E 026°11'611.9
2017-Nov-16 14:30N 40°13' E 026°04'3 2.1
2017-Nov-16 13:07N 40°14' E 026°00'5 2.3
2017-Nov-16 10:43N 40°13' E 026°07'311.9
2017-Nov-16 10:28N 40°13' E 026°03'4 0.8
2017-Nov-16 05:02N 40°13' E 026°09'012.1
2017-Nov-16 05:00N 40°13' E 026°08'7 0.8
2017-Nov-15 20:09N 40°14' E 025°59'212.7
2017-Nov-15 20:00N 40°14' E 026°02'7 4.5
2017-Nov-15 18:30N 40°13' E 026°10'611.8
2017-Nov-15 17:59N 40°13' E 026°02'1 1.1
2017-Nov-15 17:00N 40°14' E 026°01'612.3
2017-Nov-15 16:29N 40°13' E 026°09'1 0.8
2017-Nov-15 15:08N 40°12' E 026°11'212.3
2017-Nov-15 14:58N 40°13' E 026°08'6 3.0
2017-Nov-15 13:02N 40°14' E 026°00'012.5
2017-Nov-15 13:00N 40°14' E 026°01'5 2.2
2017-Nov-15 10:44N 40°13' E 026°07'312.6
2017-Nov-15 10:30N 40°13' E 026°04'2 0.7
2017-Nov-15 07:06N 40°14' E 026°01'112.1
2017-Nov-15 07:00N 40°14' E 026°02'0 0.2
2017-Nov-15 04:21N 40°13' E 026°02'0 0.0
2017-Nov-14 16:59N 40°13' E 026°01'7 3.3
2017-Nov-14 14:53N 40°13' E 026°11'513.4
2017-Nov-14 14:30N 40°13' E 026°04'3 1.9
2017-Nov-14 13:08N 40°14' E 026°01'212.2
2017-Nov-14 13:00N 40°13' E 026°03'611.8
2017-Nov-14 12:30N 40°13' E 026°10'3 1.7
2017-Nov-14 11:01N 40°12' E 026°14'413.5
2017-Nov-14 10:43N 40°13' E 026°08'313.6
2017-Nov-14 10:30N 40°13' E 026°05'2 0.5
2017-Nov-14 06:59N 40°13' E 026°02'5 2.6
2017-Nov-14 04:51N 40°13' E 026°10'513.0
2017-Nov-14 04:30N 40°13' E 026°03'  

Dump ship's entire track history